sensor_id;sensor_type;location;lat;lon;timestamp;P1;durP1;ratioP1;P2;durP2;ratioP2
6775;SDS011;3425;51.376;5.222;2024-02-04T00:00:06;87.13;;;80.03;;
6775;SDS011;3425;51.376;5.222;2024-02-04T00:02:37;84.90;;;78.00;;
6775;SDS011;3425;51.376;5.222;2024-02-04T00:05:05;86.93;;;79.45;;
6775;SDS011;3425;51.376;5.222;2024-02-04T00:07:33;87.45;;;80.28;;
6775;SDS011;3425;51.376;5.222;2024-02-04T00:10:01;85.13;;;78.22;;
6775;SDS011;3425;51.376;5.222;2024-02-04T00:12:29;86.00;;;78.70;;
6775;SDS011;3425;51.376;5.222;2024-02-04T00:14:57;85.60;;;78.60;;
6775;SDS011;3425;51.376;5.222;2024-02-04T00:17:25;88.55;;;81.15;;
6775;SDS011;3425;51.376;5.222;2024-02-04T00:19:56;88.15;;;80.90;;
6775;SDS011;3425;51.376;5.222;2024-02-04T00:22:24;89.20;;;81.90;;
6775;SDS011;3425;51.376;5.222;2024-02-04T00:24:53;88.63;;;81.32;;
6775;SDS011;3425;51.376;5.222;2024-02-04T00:27:21;86.80;;;79.70;;
6775;SDS011;3425;51.376;5.222;2024-02-04T00:29:49;87.55;;;80.25;;
6775;SDS011;3425;51.376;5.222;2024-02-04T00:32:16;88.03;;;80.72;;
6775;SDS011;3425;51.376;5.222;2024-02-04T00:34:44;90.20;;;82.80;;
6775;SDS011;3425;51.376;5.222;2024-02-04T00:37:12;90.00;;;82.55;;
6775;SDS011;3425;51.376;5.222;2024-02-04T00:39:40;88.88;;;81.57;;
6775;SDS011;3425;51.376;5.222;2024-02-04T00:42:08;89.30;;;81.90;;
6775;SDS011;3425;51.376;5.222;2024-02-04T00:44:35;89.43;;;82.13;;
6775;SDS011;3425;51.376;5.222;2024-02-04T00:47:03;89.75;;;82.28;;
6775;SDS011;3425;51.376;5.222;2024-02-04T00:49:31;89.40;;;82.00;;
6775;SDS011;3425;51.376;5.222;2024-02-04T00:51:59;90.90;;;83.30;;
6775;SDS011;3425;51.376;5.222;2024-02-04T00:54:27;91.18;;;83.78;;
6775;SDS011;3425;51.376;5.222;2024-02-04T00:56:55;91.22;;;83.75;;
6775;SDS011;3425;51.376;5.222;2024-02-04T00:59:24;90.38;;;82.97;;
6775;SDS011;3425;51.376;5.222;2024-02-04T01:01:51;92.10;;;84.55;;
6775;SDS011;3425;51.376;5.222;2024-02-04T01:04:19;93.25;;;85.40;;
6775;SDS011;3425;51.376;5.222;2024-02-04T01:06:49;92.05;;;84.35;;
6775;SDS011;3425;51.376;5.222;2024-02-04T01:09:27;92.68;;;84.78;;
6775;SDS011;3425;51.376;5.222;2024-02-04T01:11:56;92.10;;;84.50;;
6775;SDS011;3425;51.376;5.222;2024-02-04T01:14:24;94.32;;;86.32;;
6775;SDS011;3425;51.376;5.222;2024-02-04T01:16:52;92.68;;;84.88;;
6775;SDS011;3425;51.376;5.222;2024-02-04T01:19:20;94.93;;;87.13;;
6775;SDS011;3425;51.376;5.222;2024-02-04T01:21:48;93.68;;;85.85;;
6775;SDS011;3425;51.376;5.222;2024-02-04T01:24:15;93.32;;;85.57;;
6775;SDS011;3425;51.376;5.222;2024-02-04T01:26:43;95.22;;;87.43;;
6775;SDS011;3425;51.376;5.222;2024-02-04T01:29:11;93.93;;;86.20;;
6775;SDS011;3425;51.376;5.222;2024-02-04T01:31:39;93.72;;;85.97;;
6775;SDS011;3425;51.376;5.222;2024-02-04T01:34:06;95.97;;;87.97;;
6775;SDS011;3425;51.376;5.222;2024-02-04T01:36:34;95.95;;;87.70;;
6775;SDS011;3425;51.376;5.222;2024-02-04T01:39:02;95.45;;;87.43;;
6775;SDS011;3425;51.376;5.222;2024-02-04T01:41:31;95.72;;;87.63;;
6775;SDS011;3425;51.376;5.222;2024-02-04T01:43:59;97.43;;;89.05;;
6775;SDS011;3425;51.376;5.222;2024-02-04T01:46:28;95.13;;;87.22;;
6775;SDS011;3425;51.376;5.222;2024-02-04T01:48:56;96.22;;;88.03;;
6775;SDS011;3425;51.376;5.222;2024-02-04T01:51:24;95.55;;;87.45;;
6775;SDS011;3425;51.376;5.222;2024-02-04T01:53:52;96.93;;;88.65;;
6775;SDS011;3425;51.376;5.222;2024-02-04T01:56:20;95.63;;;87.57;;
6775;SDS011;3425;51.376;5.222;2024-02-04T01:58:47;95.57;;;87.65;;
6775;SDS011;3425;51.376;5.222;2024-02-04T02:01:15;96.97;;;88.35;;
6775;SDS011;3425;51.376;5.222;2024-02-04T02:03:44;94.35;;;86.55;;
6775;SDS011;3425;51.376;5.222;2024-02-04T02:06:12;94.13;;;86.40;;
6775;SDS011;3425;51.376;5.222;2024-02-04T02:08:40;95.13;;;87.22;;
6775;SDS011;3425;51.376;5.222;2024-02-04T02:11:11;93.97;;;86.20;;
6775;SDS011;3425;51.376;5.222;2024-02-04T02:13:40;94.95;;;87.15;;
6775;SDS011;3425;51.376;5.222;2024-02-04T02:16:13;92.45;;;84.70;;
6775;SDS011;3425;51.376;5.222;2024-02-04T02:18:44;93.75;;;85.57;;
6775;SDS011;3425;51.376;5.222;2024-02-04T02:23:59;89.43;;;82.03;;
6775;SDS011;3425;51.376;5.222;2024-02-04T02:26:31;90.10;;;82.43;;
6775;SDS011;3425;51.376;5.222;2024-02-04T02:29:00;91.85;;;84.15;;
6775;SDS011;3425;51.376;5.222;2024-02-04T02:31:27;91.32;;;83.82;;
6775;SDS011;3425;51.376;5.222;2024-02-04T02:34:11;89.95;;;82.55;;
6775;SDS011;3425;51.376;5.222;2024-02-04T02:39:48;90.53;;;83.03;;
6775;SDS011;3425;51.376;5.222;2024-02-04T02:42:17;90.55;;;82.97;;
6775;SDS011;3425;51.376;5.222;2024-02-04T02:44:46;90.03;;;82.32;;
6775;SDS011;3425;51.376;5.222;2024-02-04T02:47:14;88.25;;;80.95;;
6775;SDS011;3425;51.376;5.222;2024-02-04T02:49:42;87.05;;;79.95;;
6775;SDS011;3425;51.376;5.222;2024-02-04T02:52:11;86.22;;;79.13;;
6775;SDS011;3425;51.376;5.222;2024-02-04T02:54:39;90.63;;;82.88;;
6775;SDS011;3425;51.376;5.222;2024-02-04T02:57:06;89.78;;;82.53;;
6775;SDS011;3425;51.376;5.222;2024-02-04T02:59:34;90.90;;;83.13;;
6775;SDS011;3425;51.376;5.222;2024-02-04T03:02:01;87.55;;;80.45;;
6775;SDS011;3425;51.376;5.222;2024-02-04T03:04:29;88.40;;;80.80;;
6775;SDS011;3425;51.376;5.222;2024-02-04T03:06:57;86.28;;;79.28;;
6775;SDS011;3425;51.376;5.222;2024-02-04T03:09:25;88.55;;;81.13;;
6775;SDS011;3425;51.376;5.222;2024-02-04T03:11:53;86.97;;;79.97;;
6775;SDS011;3425;51.376;5.222;2024-02-04T03:14:20;87.25;;;80.05;;
6775;SDS011;3425;51.376;5.222;2024-02-04T03:16:48;84.40;;;77.65;;
6775;SDS011;3425;51.376;5.222;2024-02-04T03:19:19;85.47;;;78.65;;
6775;SDS011;3425;51.376;5.222;2024-02-04T03:21:47;83.82;;;77.03;;
6775;SDS011;3425;51.376;5.222;2024-02-04T03:24:15;83.35;;;76.65;;
6775;SDS011;3425;51.376;5.222;2024-02-04T03:26:43;84.15;;;77.32;;
6775;SDS011;3425;51.376;5.222;2024-02-04T03:29:10;87.57;;;79.13;;
6775;SDS011;3425;51.376;5.222;2024-02-04T03:31:38;84.63;;;77.68;;
6775;SDS011;3425;51.376;5.222;2024-02-04T03:34:06;85.30;;;78.35;;
6775;SDS011;3425;51.376;5.222;2024-02-04T03:36:36;84.78;;;78.05;;
6775;SDS011;3425;51.376;5.222;2024-02-04T03:39:05;85.45;;;78.75;;
6775;SDS011;3425;51.376;5.222;2024-02-04T03:41:33;85.55;;;78.75;;
6775;SDS011;3425;51.376;5.222;2024-02-04T03:44:00;85.13;;;78.28;;
6775;SDS011;3425;51.376;5.222;2024-02-04T03:46:28;84.22;;;77.63;;
6775;SDS011;3425;51.376;5.222;2024-02-04T03:48:56;84.40;;;77.70;;
6775;SDS011;3425;51.376;5.222;2024-02-04T03:51:24;82.60;;;76.10;;
6775;SDS011;3425;51.376;5.222;2024-02-04T03:53:52;82.78;;;76.18;;
6775;SDS011;3425;51.376;5.222;2024-02-04T03:56:21;83.20;;;76.50;;
6775;SDS011;3425;51.376;5.222;2024-02-04T03:58:48;84.40;;;77.70;;
6775;SDS011;3425;51.376;5.222;2024-02-04T04:01:17;82.45;;;76.00;;
6775;SDS011;3425;51.376;5.222;2024-02-04T04:03:45;81.13;;;74.90;;
6775;SDS011;3425;51.376;5.222;2024-02-04T04:06:13;81.50;;;75.07;;
6775;SDS011;3425;51.376;5.222;2024-02-04T04:08:41;81.10;;;74.80;;
6775;SDS011;3425;51.376;5.222;2024-02-04T04:11:09;81.40;;;75.20;;
6775;SDS011;3425;51.376;5.222;2024-02-04T04:13:37;82.18;;;75.78;;
6775;SDS011;3425;51.376;5.222;2024-02-04T04:16:05;83.43;;;76.68;;
6775;SDS011;3425;51.376;5.222;2024-02-04T04:18:33;84.75;;;75.85;;
6775;SDS011;3425;51.376;5.222;2024-02-04T04:21:02;81.25;;;74.95;;
6775;SDS011;3425;51.376;5.222;2024-02-04T04:23:30;82.55;;;76.05;;
6775;SDS011;3425;51.376;5.222;2024-02-04T04:25:58;83.22;;;76.68;;
6775;SDS011;3425;51.376;5.222;2024-02-04T04:28:25;82.55;;;75.78;;
6775;SDS011;3425;51.376;5.222;2024-02-04T04:30:53;82.55;;;76.07;;
6775;SDS011;3425;51.376;5.222;2024-02-04T04:33:21;81.10;;;74.68;;
6775;SDS011;3425;51.376;5.222;2024-02-04T04:35:49;80.65;;;74.15;;
6775;SDS011;3425;51.376;5.222;2024-02-04T04:38:17;81.53;;;75.13;;
6775;SDS011;3425;51.376;5.222;2024-02-04T04:40:45;79.97;;;73.70;;
6775;SDS011;3425;51.376;5.222;2024-02-04T04:43:13;80.53;;;74.25;;
6775;SDS011;3425;51.376;5.222;2024-02-04T04:45:40;79.60;;;73.25;;
6775;SDS011;3425;51.376;5.222;2024-02-04T04:48:08;80.78;;;74.03;;
6775;SDS011;3425;51.376;5.222;2024-02-04T04:50:37;79.70;;;73.03;;
6775;SDS011;3425;51.376;5.222;2024-02-04T04:53:04;79.75;;;73.55;;
6775;SDS011;3425;51.376;5.222;2024-02-04T04:55:33;81.40;;;74.85;;
6775;SDS011;3425;51.376;5.222;2024-02-04T04:58:01;81.80;;;75.20;;
6775;SDS011;3425;51.376;5.222;2024-02-04T05:00:29;80.03;;;73.82;;
6775;SDS011;3425;51.376;5.222;2024-02-04T05:02:58;82.38;;;74.70;;
6775;SDS011;3425;51.376;5.222;2024-02-04T05:05:26;81.88;;;75.43;;
6775;SDS011;3425;51.376;5.222;2024-02-04T05:07:53;83.10;;;75.70;;
6775;SDS011;3425;51.376;5.222;2024-02-04T05:10:21;80.05;;;73.55;;
6775;SDS011;3425;51.376;5.222;2024-02-04T05:12:49;81.95;;;75.38;;
6775;SDS011;3425;51.376;5.222;2024-02-04T05:15:17;81.85;;;75.20;;
6775;SDS011;3425;51.376;5.222;2024-02-04T05:17:45;80.75;;;74.03;;
6775;SDS011;3425;51.376;5.222;2024-02-04T05:20:12;85.75;;;78.32;;
6775;SDS011;3425;51.376;5.222;2024-02-04T05:22:40;83.45;;;76.43;;
6775;SDS011;3425;51.376;5.222;2024-02-04T05:25:08;82.18;;;75.90;;
6775;SDS011;3425;51.376;5.222;2024-02-04T05:27:36;81.55;;;74.90;;
6775;SDS011;3425;51.376;5.222;2024-02-04T05:30:08;82.03;;;75.35;;
6775;SDS011;3425;51.376;5.222;2024-02-04T05:32:36;81.53;;;75.20;;
6775;SDS011;3425;51.376;5.222;2024-02-04T05:35:04;83.18;;;76.57;;
6775;SDS011;3425;51.376;5.222;2024-02-04T05:37:32;82.00;;;75.55;;
6775;SDS011;3425;51.376;5.222;2024-02-04T05:40:00;83.13;;;76.63;;
6775;SDS011;3425;51.376;5.222;2024-02-04T05:42:28;82.35;;;75.90;;
6775;SDS011;3425;51.376;5.222;2024-02-04T05:44:55;84.25;;;77.38;;
6775;SDS011;3425;51.376;5.222;2024-02-04T05:47:23;84.50;;;77.25;;
6775;SDS011;3425;51.376;5.222;2024-02-04T05:49:51;83.97;;;77.38;;
6775;SDS011;3425;51.376;5.222;2024-02-04T05:52:19;82.88;;;76.32;;
6775;SDS011;3425;51.376;5.222;2024-02-04T05:54:47;82.07;;;75.57;;
6775;SDS011;3425;51.376;5.222;2024-02-04T05:57:14;82.63;;;76.22;;
6775;SDS011;3425;51.376;5.222;2024-02-04T05:59:42;84.93;;;78.15;;
6775;SDS011;3425;51.376;5.222;2024-02-04T06:02:11;85.15;;;78.35;;
6775;SDS011;3425;51.376;5.222;2024-02-04T06:04:38;83.97;;;77.22;;
6775;SDS011;3425;51.376;5.222;2024-02-04T06:07:06;86.35;;;78.93;;
6775;SDS011;3425;51.376;5.222;2024-02-04T06:09:34;85.28;;;78.47;;
6775;SDS011;3425;51.376;5.222;2024-02-04T06:12:02;87.05;;;79.95;;
6775;SDS011;3425;51.376;5.222;2024-02-04T06:14:33;85.25;;;78.45;;
6775;SDS011;3425;51.376;5.222;2024-02-04T06:17:02;83.25;;;76.63;;
6775;SDS011;3425;51.376;5.222;2024-02-04T06:19:31;86.30;;;79.20;;
6775;SDS011;3425;51.376;5.222;2024-02-04T06:21:59;81.63;;;75.13;;
6775;SDS011;3425;51.376;5.222;2024-02-04T06:24:27;86.10;;;79.32;;
6775;SDS011;3425;51.376;5.222;2024-02-04T06:26:55;82.32;;;75.82;;
6775;SDS011;3425;51.376;5.222;2024-02-04T06:29:26;82.15;;;75.75;;
6775;SDS011;3425;51.376;5.222;2024-02-04T06:31:53;83.65;;;77.03;;
6775;SDS011;3425;51.376;5.222;2024-02-04T06:34:21;82.68;;;75.97;;
6775;SDS011;3425;51.376;5.222;2024-02-04T06:36:49;84.05;;;77.35;;
6775;SDS011;3425;51.376;5.222;2024-02-04T06:39:17;83.93;;;77.22;;
6775;SDS011;3425;51.376;5.222;2024-02-04T06:41:45;85.10;;;77.97;;
6775;SDS011;3425;51.376;5.222;2024-02-04T06:44:13;85.63;;;77.57;;
6775;SDS011;3425;51.376;5.222;2024-02-04T06:46:41;83.82;;;77.22;;
6775;SDS011;3425;51.376;5.222;2024-02-04T06:49:09;85.35;;;78.45;;
6775;SDS011;3425;51.376;5.222;2024-02-04T06:51:36;85.15;;;78.35;;
6775;SDS011;3425;51.376;5.222;2024-02-04T06:54:04;85.38;;;78.47;;
6775;SDS011;3425;51.376;5.222;2024-02-04T06:56:32;84.57;;;77.75;;
6775;SDS011;3425;51.376;5.222;2024-02-04T06:59:00;84.43;;;77.43;;
6775;SDS011;3425;51.376;5.222;2024-02-04T07:01:29;84.57;;;77.78;;
6775;SDS011;3425;51.376;5.222;2024-02-04T07:03:57;82.32;;;75.68;;
6775;SDS011;3425;51.376;5.222;2024-02-04T07:06:25;84.22;;;77.43;;
6775;SDS011;3425;51.376;5.222;2024-02-04T07:08:55;83.18;;;76.10;;
6775;SDS011;3425;51.376;5.222;2024-02-04T07:11:22;83.72;;;76.82;;
6775;SDS011;3425;51.376;5.222;2024-02-04T07:13:51;83.63;;;76.70;;
6775;SDS011;3425;51.376;5.222;2024-02-04T07:16:25;84.63;;;77.82;;
6775;SDS011;3425;51.376;5.222;2024-02-04T07:18:54;85.20;;;78.40;;
6775;SDS011;3425;51.376;5.222;2024-02-04T07:21:23;85.70;;;78.30;;
6775;SDS011;3425;51.376;5.222;2024-02-04T07:23:51;82.45;;;75.38;;
6775;SDS011;3425;51.376;5.222;2024-02-04T07:26:19;83.15;;;75.90;;
6775;SDS011;3425;51.376;5.222;2024-02-04T07:28:46;82.03;;;75.22;;
6775;SDS011;3425;51.376;5.222;2024-02-04T07:31:14;82.38;;;75.15;;
6775;SDS011;3425;51.376;5.222;2024-02-04T07:33:41;80.22;;;73.32;;
6775;SDS011;3425;51.376;5.222;2024-02-04T07:36:10;80.45;;;73.13;;
6775;SDS011;3425;51.376;5.222;2024-02-04T07:38:38;81.82;;;74.53;;
6775;SDS011;3425;51.376;5.222;2024-02-04T07:41:07;82.00;;;74.90;;
6775;SDS011;3425;51.376;5.222;2024-02-04T07:43:35;79.88;;;72.88;;
6775;SDS011;3425;51.376;5.222;2024-02-04T07:46:03;79.95;;;72.93;;
6775;SDS011;3425;51.376;5.222;2024-02-04T07:48:31;80.88;;;73.28;;
6775;SDS011;3425;51.376;5.222;2024-02-04T07:50:59;79.80;;;72.80;;
6775;SDS011;3425;51.376;5.222;2024-02-04T07:53:27;79.95;;;72.65;;
6775;SDS011;3425;51.376;5.222;2024-02-04T07:55:55;81.63;;;74.43;;
6775;SDS011;3425;51.376;5.222;2024-02-04T07:58:22;82.75;;;75.10;;
6775;SDS011;3425;51.376;5.222;2024-02-04T08:00:50;78.85;;;71.75;;
6775;SDS011;3425;51.376;5.222;2024-02-04T08:03:18;79.80;;;72.70;;
6775;SDS011;3425;51.376;5.222;2024-02-04T08:05:46;80.18;;;72.97;;
6775;SDS011;3425;51.376;5.222;2024-02-04T08:08:14;80.30;;;73.20;;
6775;SDS011;3425;51.376;5.222;2024-02-04T08:10:41;80.00;;;72.88;;
6775;SDS011;3425;51.376;5.222;2024-02-04T08:13:10;80.90;;;73.70;;
6775;SDS011;3425;51.376;5.222;2024-02-04T08:15:37;79.28;;;72.18;;
6775;SDS011;3425;51.376;5.222;2024-02-04T08:18:05;80.00;;;72.90;;
6775;SDS011;3425;51.376;5.222;2024-02-04T08:20:34;78.05;;;71.15;;
6775;SDS011;3425;51.376;5.222;2024-02-04T08:23:02;79.93;;;72.63;;
6775;SDS011;3425;51.376;5.222;2024-02-04T08:25:31;78.05;;;71.25;;
6775;SDS011;3425;51.376;5.222;2024-02-04T08:27:58;80.18;;;73.07;;
6775;SDS011;3425;51.376;5.222;2024-02-04T08:30:26;79.30;;;71.90;;
6775;SDS011;3425;51.376;5.222;2024-02-04T08:32:54;79.70;;;71.93;;
6775;SDS011;3425;51.376;5.222;2024-02-04T08:35:22;80.63;;;73.53;;
6775;SDS011;3425;51.376;5.222;2024-02-04T08:37:49;79.70;;;72.40;;
6775;SDS011;3425;51.376;5.222;2024-02-04T08:40:16;79.03;;;71.97;;
6775;SDS011;3425;51.376;5.222;2024-02-04T08:42:44;92.72;;;75.47;;
6775;SDS011;3425;51.376;5.222;2024-02-04T08:45:11;79.22;;;72.20;;
6775;SDS011;3425;51.376;5.222;2024-02-04T08:47:39;80.80;;;73.50;;
6775;SDS011;3425;51.376;5.222;2024-02-04T08:50:07;80.93;;;73.50;;
6775;SDS011;3425;51.376;5.222;2024-02-04T08:52:35;80.60;;;73.40;;
6775;SDS011;3425;51.376;5.222;2024-02-04T08:55:03;80.43;;;73.22;;
6775;SDS011;3425;51.376;5.222;2024-02-04T08:57:31;80.18;;;73.07;;
6775;SDS011;3425;51.376;5.222;2024-02-04T08:59:59;79.97;;;72.65;;
6775;SDS011;3425;51.376;5.222;2024-02-04T09:02:27;81.65;;;73.35;;
6775;SDS011;3425;51.376;5.222;2024-02-04T09:04:54;79.70;;;72.60;;
6775;SDS011;3425;51.376;5.222;2024-02-04T09:07:22;81.22;;;73.82;;
6775;SDS011;3425;51.376;5.222;2024-02-04T09:09:50;81.18;;;73.97;;
6775;SDS011;3425;51.376;5.222;2024-02-04T09:12:18;79.20;;;72.05;;
6775;SDS011;3425;51.376;5.222;2024-02-04T09:14:45;84.55;;;76.60;;
6775;SDS011;3425;51.376;5.222;2024-02-04T09:17:12;79.50;;;72.30;;
6775;SDS011;3425;51.376;5.222;2024-02-04T09:19:40;81.18;;;73.90;;
6775;SDS011;3425;51.376;5.222;2024-02-04T09:22:08;81.00;;;73.53;;
6775;SDS011;3425;51.376;5.222;2024-02-04T09:24:36;78.93;;;71.68;;
6775;SDS011;3425;51.376;5.222;2024-02-04T09:27:04;78.40;;;71.20;;
6775;SDS011;3425;51.376;5.222;2024-02-04T09:29:32;77.90;;;70.68;;
6775;SDS011;3425;51.376;5.222;2024-02-04T09:32:00;81.38;;;73.55;;
6775;SDS011;3425;51.376;5.222;2024-02-04T09:34:28;78.05;;;70.75;;
6775;SDS011;3425;51.376;5.222;2024-02-04T09:36:56;78.90;;;71.50;;
6775;SDS011;3425;51.376;5.222;2024-02-04T09:39:24;79.80;;;72.63;;
6775;SDS011;3425;51.376;5.222;2024-02-04T09:41:53;76.35;;;69.45;;
6775;SDS011;3425;51.376;5.222;2024-02-04T09:44:21;77.00;;;69.90;;
6775;SDS011;3425;51.376;5.222;2024-02-04T09:46:49;77.40;;;70.30;;
6775;SDS011;3425;51.376;5.222;2024-02-04T09:49:17;77.85;;;70.63;;
6775;SDS011;3425;51.376;5.222;2024-02-04T09:51:45;77.85;;;70.82;;
6775;SDS011;3425;51.376;5.222;2024-02-04T09:54:13;77.82;;;70.82;;
6775;SDS011;3425;51.376;5.222;2024-02-04T09:56:42;76.50;;;69.60;;
6775;SDS011;3425;51.376;5.222;2024-02-04T09:59:10;79.13;;;71.93;;
6775;SDS011;3425;51.376;5.222;2024-02-04T10:01:38;77.10;;;70.10;;
6775;SDS011;3425;51.376;5.222;2024-02-04T10:04:07;75.90;;;69.03;;
6775;SDS011;3425;51.376;5.222;2024-02-04T10:06:35;74.88;;;68.05;;
6775;SDS011;3425;51.376;5.222;2024-02-04T10:09:04;78.55;;;71.00;;
6775;SDS011;3425;51.376;5.222;2024-02-04T10:11:31;77.85;;;70.75;;
6775;SDS011;3425;51.376;5.222;2024-02-04T10:13:59;78.57;;;71.28;;
6775;SDS011;3425;51.376;5.222;2024-02-04T10:16:27;79.55;;;72.25;;
6775;SDS011;3425;51.376;5.222;2024-02-04T10:18:55;76.28;;;69.32;;
6775;SDS011;3425;51.376;5.222;2024-02-04T10:21:23;77.47;;;70.47;;
6775;SDS011;3425;51.376;5.222;2024-02-04T10:23:51;79.90;;;72.50;;
6775;SDS011;3425;51.376;5.222;2024-02-04T10:26:20;76.22;;;69.32;;
6775;SDS011;3425;51.376;5.222;2024-02-04T10:28:48;76.63;;;69.72;;
6775;SDS011;3425;51.376;5.222;2024-02-04T10:31:15;79.03;;;71.75;;
6775;SDS011;3425;51.376;5.222;2024-02-04T10:33:43;78.30;;;71.30;;
6775;SDS011;3425;51.376;5.222;2024-02-04T10:36:11;79.10;;;71.57;;
6775;SDS011;3425;51.376;5.222;2024-02-04T10:38:39;80.53;;;72.75;;
6775;SDS011;3425;51.376;5.222;2024-02-04T10:41:07;78.65;;;71.53;;
6775;SDS011;3425;51.376;5.222;2024-02-04T10:43:35;79.65;;;72.45;;
6775;SDS011;3425;51.376;5.222;2024-02-04T10:46:09;79.20;;;72.10;;
6775;SDS011;3425;51.376;5.222;2024-02-04T10:48:41;82.25;;;74.90;;
6775;SDS011;3425;51.376;5.222;2024-02-04T10:51:15;79.60;;;72.40;;
6775;SDS011;3425;51.376;5.222;2024-02-04T10:53:43;80.50;;;73.15;;
6775;SDS011;3425;51.376;5.222;2024-02-04T10:56:18;80.13;;;72.88;;
6775;SDS011;3425;51.376;5.222;2024-02-04T10:58:47;80.75;;;73.45;;
6775;SDS011;3425;51.376;5.222;2024-02-04T11:01:14;80.40;;;73.18;;
6775;SDS011;3425;51.376;5.222;2024-02-04T11:03:42;83.45;;;75.82;;
6775;SDS011;3425;51.376;5.222;2024-02-04T11:06:11;81.55;;;74.25;;
6775;SDS011;3425;51.376;5.222;2024-02-04T11:08:38;81.82;;;74.45;;
6775;SDS011;3425;51.376;5.222;2024-02-04T11:11:06;82.13;;;74.82;;
6775;SDS011;3425;51.376;5.222;2024-02-04T11:13:37;81.82;;;74.53;;
6775;SDS011;3425;51.376;5.222;2024-02-04T11:16:06;83.15;;;75.65;;
6775;SDS011;3425;51.376;5.222;2024-02-04T11:21:18;83.38;;;75.70;;
6775;SDS011;3425;51.376;5.222;2024-02-04T11:24:00;80.15;;;72.65;;
6775;SDS011;3425;51.376;5.222;2024-02-04T11:26:33;81.63;;;74.15;;
6775;SDS011;3425;51.376;5.222;2024-02-04T11:29:01;85.03;;;77.43;;
6775;SDS011;3425;51.376;5.222;2024-02-04T11:31:29;83.30;;;75.70;;
6775;SDS011;3425;51.376;5.222;2024-02-04T11:33:59;82.13;;;74.47;;
6775;SDS011;3425;51.376;5.222;2024-02-04T11:36:28;80.90;;;73.60;;
6775;SDS011;3425;51.376;5.222;2024-02-04T11:38:56;82.97;;;75.47;;
6775;SDS011;3425;51.376;5.222;2024-02-04T11:41:24;81.25;;;73.95;;
6775;SDS011;3425;51.376;5.222;2024-02-04T11:43:53;81.82;;;74.40;;
6775;SDS011;3425;51.376;5.222;2024-02-04T11:46:32;82.60;;;75.15;;
6775;SDS011;3425;51.376;5.222;2024-02-04T11:49:00;84.72;;;76.97;;
6775;SDS011;3425;51.376;5.222;2024-02-04T11:51:29;81.22;;;73.93;;
6775;SDS011;3425;51.376;5.222;2024-02-04T11:53:57;81.63;;;73.93;;
6775;SDS011;3425;51.376;5.222;2024-02-04T11:56:25;80.43;;;73.03;;
6775;SDS011;3425;51.376;5.222;2024-02-04T11:58:53;79.80;;;72.50;;
6775;SDS011;3425;51.376;5.222;2024-02-04T12:01:24;81.97;;;74.55;;
6775;SDS011;3425;51.376;5.222;2024-02-04T12:03:52;81.25;;;73.95;;
6775;SDS011;3425;51.376;5.222;2024-02-04T12:06:20;80.43;;;73.13;;
6775;SDS011;3425;51.376;5.222;2024-02-04T12:08:47;80.63;;;73.22;;
6775;SDS011;3425;51.376;5.222;2024-02-04T12:11:16;81.75;;;74.05;;
6775;SDS011;3425;51.376;5.222;2024-02-04T12:13:44;81.18;;;73.68;;
6775;SDS011;3425;51.376;5.222;2024-02-04T12:16:12;80.18;;;72.88;;
6775;SDS011;3425;51.376;5.222;2024-02-04T12:18:50;79.07;;;71.93;;
6775;SDS011;3425;51.376;5.222;2024-02-04T12:21:18;79.57;;;72.38;;
6775;SDS011;3425;51.376;5.222;2024-02-04T12:23:47;79.32;;;72.13;;
6775;SDS011;3425;51.376;5.222;2024-02-04T12:26:14;80.25;;;72.95;;
6775;SDS011;3425;51.376;5.222;2024-02-04T12:28:43;78.05;;;70.95;;
6775;SDS011;3425;51.376;5.222;2024-02-04T12:31:18;75.40;;;68.60;;
6775;SDS011;3425;51.376;5.222;2024-02-04T12:33:52;76.55;;;69.60;;
6775;SDS011;3425;51.376;5.222;2024-02-04T12:36:21;74.60;;;67.70;;
6775;SDS011;3425;51.376;5.222;2024-02-04T12:38:52;74.10;;;67.45;;
6775;SDS011;3425;51.376;5.222;2024-02-04T12:41:21;74.07;;;67.57;;
6775;SDS011;3425;51.376;5.222;2024-02-04T12:43:52;73.28;;;66.78;;
6775;SDS011;3425;51.376;5.222;2024-02-04T12:46:23;73.30;;;66.78;;
6775;SDS011;3425;51.376;5.222;2024-02-04T12:48:52;70.47;;;64.07;;
6775;SDS011;3425;51.376;5.222;2024-02-04T12:51:30;71.80;;;65.32;;
6775;SDS011;3425;51.376;5.222;2024-02-04T12:54:06;71.28;;;65.07;;
6775;SDS011;3425;51.376;5.222;2024-02-04T12:56:50;70.00;;;63.92;;
6775;SDS011;3425;51.376;5.222;2024-02-04T12:59:32;69.97;;;63.88;;
6775;SDS011;3425;51.376;5.222;2024-02-04T13:02:13;66.18;;;60.50;;
6775;SDS011;3425;51.376;5.222;2024-02-04T13:04:43;67.10;;;61.33;;
6775;SDS011;3425;51.376;5.222;2024-02-04T13:07:12;66.03;;;60.33;;
6775;SDS011;3425;51.376;5.222;2024-02-04T13:09:41;66.78;;;61.08;;
6775;SDS011;3425;51.376;5.222;2024-02-04T13:12:09;65.90;;;60.30;;
6775;SDS011;3425;51.376;5.222;2024-02-04T13:14:37;64.88;;;59.38;;
6775;SDS011;3425;51.376;5.222;2024-02-04T13:17:05;64.50;;;59.10;;
6775;SDS011;3425;51.376;5.222;2024-02-04T13:19:34;64.45;;;59.03;;
6775;SDS011;3425;51.376;5.222;2024-02-04T13:22:04;63.95;;;58.65;;
6775;SDS011;3425;51.376;5.222;2024-02-04T13:24:33;63.25;;;57.88;;
6775;SDS011;3425;51.376;5.222;2024-02-04T13:27:01;64.93;;;59.58;;
6775;SDS011;3425;51.376;5.222;2024-02-04T13:29:30;64.28;;;58.97;;
6775;SDS011;3425;51.376;5.222;2024-02-04T13:31:58;63.42;;;58.17;;
6775;SDS011;3425;51.376;5.222;2024-02-04T13:34:26;65.00;;;59.70;;
6775;SDS011;3425;51.376;5.222;2024-02-04T13:36:54;63.50;;;58.28;;
6775;SDS011;3425;51.376;5.222;2024-02-04T13:39:25;63.40;;;58.20;;
6775;SDS011;3425;51.376;5.222;2024-02-04T13:41:54;62.72;;;57.50;;
6775;SDS011;3425;51.376;5.222;2024-02-04T13:44:22;61.28;;;56.38;;
6775;SDS011;3425;51.376;5.222;2024-02-04T13:46:50;59.05;;;54.45;;
6775;SDS011;3425;51.376;5.222;2024-02-04T13:49:18;55.95;;;51.88;;
6775;SDS011;3425;51.376;5.222;2024-02-04T13:51:45;53.22;;;49.63;;
6775;SDS011;3425;51.376;5.222;2024-02-04T13:54:13;50.13;;;46.92;;
6775;SDS011;3425;51.376;5.222;2024-02-04T13:56:44;49.58;;;46.38;;
6775;SDS011;3425;51.376;5.222;2024-02-04T13:59:15;47.40;;;44.50;;
6775;SDS011;3425;51.376;5.222;2024-02-04T14:01:43;49.75;;;46.38;;
6775;SDS011;3425;51.376;5.222;2024-02-04T14:04:11;47.72;;;44.72;;
6775;SDS011;3425;51.376;5.222;2024-02-04T14:06:39;48.70;;;45.60;;
6775;SDS011;3425;51.376;5.222;2024-02-04T14:09:07;50.45;;;46.95;;
6775;SDS011;3425;51.376;5.222;2024-02-04T14:11:35;50.80;;;47.40;;
6775;SDS011;3425;51.376;5.222;2024-02-04T14:14:04;49.50;;;46.30;;
6775;SDS011;3425;51.376;5.222;2024-02-04T14:16:31;49.88;;;46.55;;
6775;SDS011;3425;51.376;5.222;2024-02-04T14:18:59;48.28;;;44.92;;
6775;SDS011;3425;51.376;5.222;2024-02-04T14:21:27;48.38;;;45.17;;
6775;SDS011;3425;51.376;5.222;2024-02-04T14:23:55;45.40;;;42.63;;
6775;SDS011;3425;51.376;5.222;2024-02-04T14:26:22;41.38;;;38.97;;
6775;SDS011;3425;51.376;5.222;2024-02-04T14:28:50;46.33;;;43.17;;
6775;SDS011;3425;51.376;5.222;2024-02-04T14:31:18;42.97;;;40.47;;
6775;SDS011;3425;51.376;5.222;2024-02-04T14:33:45;38.55;;;36.38;;
6775;SDS011;3425;51.376;5.222;2024-02-04T14:36:14;28.30;;;26.80;;
6775;SDS011;3425;51.376;5.222;2024-02-04T14:38:42;10.05;;;9.55;;
6775;SDS011;3425;51.376;5.222;2024-02-04T14:41:10;10.50;;;10.00;;
6775;SDS011;3425;51.376;5.222;2024-02-04T14:43:38;10.48;;;9.98;;
6775;SDS011;3425;51.376;5.222;2024-02-04T14:46:06;10.20;;;9.70;;
6775;SDS011;3425;51.376;5.222;2024-02-04T14:48:37;10.15;;;9.65;;
6775;SDS011;3425;51.376;5.222;2024-02-04T14:51:09;10.88;;;10.27;;
6775;SDS011;3425;51.376;5.222;2024-02-04T14:53:37;9.40;;;9.00;;
6775;SDS011;3425;51.376;5.222;2024-02-04T14:56:05;9.65;;;9.20;;
6775;SDS011;3425;51.376;5.222;2024-02-04T14:58:33;10.25;;;9.60;;
6775;SDS011;3425;51.376;5.222;2024-02-04T15:01:01;10.10;;;9.52;;
6775;SDS011;3425;51.376;5.222;2024-02-04T15:03:29;9.20;;;8.80;;